createdAt,value
2022-10-24T00:01:22.664Z,10.10
2022-10-24T00:03:50.908Z,10.10
2022-10-24T00:06:19.456Z,10.10
2022-10-24T00:08:47.498Z,10.10
2022-10-24T00:11:18.955Z,10.10
2022-10-24T00:13:46.189Z,10.20
2022-10-24T00:16:14.108Z,10.20
2022-10-24T00:18:41.327Z,10.20
2022-10-24T00:21:08.652Z,10.20
2022-10-24T00:23:36.728Z,10.20
2022-10-24T00:26:04.978Z,10.20
2022-10-24T00:28:33.799Z,10.10
2022-10-24T00:31:02.051Z,10.20
2022-10-24T00:33:29.925Z,10.20
2022-10-24T00:35:57.109Z,10.20
2022-10-24T00:38:24.547Z,10.20
2022-10-24T00:40:51.769Z,10.20
2022-10-24T00:43:23.371Z,10.20
2022-10-24T00:45:50.828Z,10.20
2022-10-24T00:48:21.124Z,10.20
2022-10-24T00:50:52.639Z,10.20
2022-10-24T00:53:21.708Z,10.20
2022-10-24T00:55:52.755Z,10.20
2022-10-24T00:58:26.064Z,10.20
2022-10-24T01:00:53.425Z,10.20
2022-10-24T01:03:20.987Z,10.10
2022-10-24T01:05:55.487Z,10.10
2022-10-24T01:08:30.453Z,10.10
2022-10-24T01:11:08.924Z,10.10
2022-10-24T01:14:06.287Z,10.00
2022-10-24T01:16:54.373Z,10.00
2022-10-24T01:19:44.492Z,10.00
2022-10-24T01:22:18.950Z,10.00
2022-10-24T01:24:54.887Z,9.90
2022-10-24T01:28:02.079Z,9.90
2022-10-24T01:30:36.909Z,9.90
2022-10-24T01:33:15.909Z,9.90
2022-10-24T01:35:47.781Z,9.80
2022-10-24T01:38:53.372Z,9.80
2022-10-24T01:41:23.902Z,9.80
2022-10-24T01:44:13.578Z,9.80
2022-10-24T01:46:45.808Z,9.70
2022-10-24T01:49:16.989Z,9.70
2022-10-24T01:51:47.350Z,9.80
2022-10-24T01:54:16.062Z,9.80
2022-10-24T01:56:43.308Z,9.80
2022-10-24T01:59:30.331Z,9.80
2022-10-24T02:02:06.421Z,9.80
2022-10-24T02:04:37.363Z,9.80
2022-10-24T02:07:09.106Z,9.80
2022-10-24T02:09:40.301Z,9.90
2022-10-24T02:12:10.471Z,9.90
2022-10-24T02:14:45.616Z,9.90
2022-10-24T02:17:13.074Z,9.90
2022-10-24T02:19:40.438Z,9.90
2022-10-24T02:22:30.647Z,9.90
2022-10-24T02:25:11.300Z,9.80
2022-10-24T02:27:45.290Z,9.80
2022-10-24T02:30:20.355Z,9.80
2022-10-24T02:32:51.566Z,9.80
2022-10-24T02:35:22.996Z,9.80
2022-10-24T02:37:55.495Z,9.80
2022-10-24T02:40:23.739Z,9.70
2022-10-24T02:42:55.821Z,9.80
2022-10-24T02:45:24.396Z,9.80
2022-10-24T02:48:02.787Z,9.80
2022-10-24T02:50:32.079Z,9.70
2022-10-24T02:52:59.338Z,9.70
2022-10-24T02:55:26.621Z,9.70
2022-10-24T02:57:53.701Z,9.70
2022-10-24T03:00:21.050Z,9.70
2022-10-24T03:02:48.955Z,9.70
2022-10-24T03:05:16.415Z,9.60
2022-10-24T03:07:43.635Z,9.70
2022-10-24T03:10:11.389Z,9.60
2022-10-24T03:12:38.628Z,9.60
2022-10-24T03:15:06.241Z,9.60
2022-10-24T03:17:33.420Z,9.60
2022-10-24T03:20:00.919Z,9.70
2022-10-24T03:22:30.592Z,9.70
2022-10-24T03:25:02.008Z,9.60
2022-10-24T03:27:30.089Z,9.70
2022-10-24T03:29:57.431Z,9.70
2022-10-24T03:34:56.821Z,9.60
2022-10-24T03:37:24.049Z,9.60
2022-10-24T03:39:51.552Z,9.70
2022-10-24T03:42:18.790Z,9.70
2022-10-24T03:44:46.227Z,9.60
2022-10-24T03:47:13.667Z,9.70
2022-10-24T03:49:40.872Z,9.70
2022-10-24T03:52:08.244Z,9.60
2022-10-24T03:54:35.726Z,9.60
2022-10-24T03:57:03.869Z,9.60
2022-10-24T03:59:31.637Z,9.60
2022-10-24T04:02:01.300Z,9.60
2022-10-24T04:04:28.903Z,9.60
2022-10-24T04:06:56.523Z,9.60
2022-10-24T04:09:23.583Z,9.60
2022-10-24T04:11:51.353Z,9.60
2022-10-24T04:14:18.614Z,9.50
2022-10-24T04:16:46.204Z,9.50
2022-10-24T04:19:13.389Z,9.50
2022-10-24T04:21:41.018Z,9.50
2022-10-24T04:24:08.094Z,9.50
2022-10-24T04:26:35.431Z,9.50
2022-10-24T04:29:02.689Z,9.50
2022-10-24T04:31:29.870Z,9.50
2022-10-24T04:33:57.156Z,9.50
2022-10-24T04:36:24.456Z,9.50
2022-10-24T04:38:52.028Z,9.40
2022-10-24T04:41:19.416Z,9.40
2022-10-24T04:43:46.755Z,9.40
2022-10-24T04:46:14.004Z,9.40
2022-10-24T04:48:41.753Z,9.40
2022-10-24T04:51:08.921Z,9.50
2022-10-24T04:53:37.388Z,9.40
2022-10-24T04:56:05.028Z,9.40
2022-10-24T04:58:32.390Z,9.40
2022-10-24T05:00:59.555Z,9.40
2022-10-24T05:03:27.030Z,9.40
2022-10-24T05:05:54.089Z,9.40
2022-10-24T05:08:21.639Z,9.50
2022-10-24T05:10:48.740Z,9.50
2022-10-24T05:13:16.157Z,9.50
2022-10-24T05:15:43.953Z,9.50
2022-10-24T05:18:11.674Z,9.50
2022-10-24T05:23:06.508Z,9.50
2022-10-24T05:25:36.210Z,9.50
2022-10-24T05:28:06.270Z,9.50
2022-10-24T05:30:34.628Z,9.50
2022-10-24T05:33:03.191Z,9.60
2022-10-24T05:35:30.742Z,9.60
2022-10-24T05:37:58.018Z,9.70
2022-10-24T05:40:25.213Z,9.70
2022-10-24T05:42:52.514Z,9.70
2022-10-24T05:45:21.188Z,9.70
2022-10-24T05:47:48.599Z,9.80
2022-10-24T05:50:16.428Z,9.80
2022-10-24T05:52:46.937Z,9.90
2022-10-24T05:55:17.953Z,9.90
2022-10-24T05:57:46.550Z,9.90
2022-10-24T06:00:16.424Z,9.90
2022-10-24T06:05:22.093Z,10.00
2022-10-24T06:07:50.226Z,10.10
2022-10-24T06:10:17.719Z,10.10
2022-10-24T06:12:45.211Z,10.10
2022-10-24T06:15:13.604Z,10.20
2022-10-24T06:17:41.350Z,10.20
2022-10-24T06:20:09.214Z,10.30
2022-10-24T06:22:36.609Z,10.40
2022-10-24T06:25:04.029Z,10.40
2022-10-24T06:27:31.347Z,10.50
2022-10-24T06:29:58.741Z,10.50
2022-10-24T06:32:25.927Z,10.50
2022-10-24T06:34:53.269Z,10.60
2022-10-24T06:37:20.588Z,10.60
2022-10-24T06:39:48.624Z,10.70
2022-10-24T06:42:15.855Z,10.80
2022-10-24T06:44:43.023Z,10.80
2022-10-24T06:47:10.206Z,10.80
2022-10-24T06:49:37.592Z,10.90
2022-10-24T06:52:04.826Z,11.00
2022-10-24T06:54:33.776Z,11.00
2022-10-24T06:57:01.010Z,11.10
2022-10-24T06:59:28.510Z,11.20
2022-10-24T07:01:55.917Z,11.30
2022-10-24T07:04:23.252Z,11.40
2022-10-24T07:06:50.837Z,11.40
2022-10-24T07:09:25.752Z,11.50
2022-10-24T07:11:55.856Z,11.50
2022-10-24T07:14:23.038Z,11.70
2022-10-24T07:16:50.118Z,11.70
2022-10-24T07:19:17.817Z,11.80
2022-10-24T07:21:44.949Z,11.90
2022-10-24T07:24:13.600Z,11.90
2022-10-24T07:26:41.029Z,12.00
2022-10-24T07:29:08.395Z,12.00
2022-10-24T07:31:36.889Z,12.00
2022-10-24T07:34:06.920Z,12.10
2022-10-24T07:36:34.334Z,12.30
2022-10-24T07:39:01.894Z,12.30
2022-10-24T07:41:31.431Z,12.40
2022-10-24T07:43:59.636Z,12.50
2022-10-24T07:46:26.989Z,12.60
2022-10-24T07:48:54.831Z,12.80
2022-10-24T07:51:23.209Z,12.90
2022-10-24T07:53:50.443Z,13.10
2022-10-24T07:56:18.171Z,13.20
2022-10-24T07:58:47.071Z,13.50
2022-10-24T08:01:18.253Z,13.90
2022-10-24T08:03:45.931Z,14.30
2022-10-24T08:06:16.382Z,14.70
2022-10-24T08:08:43.827Z,15.00
2022-10-24T08:11:14.409Z,15.50
2022-10-24T08:13:42.856Z,15.80
2022-10-24T08:16:12.528Z,15.90
2022-10-24T08:18:40.392Z,15.90
2022-10-24T08:21:10.106Z,15.90
2022-10-24T08:23:39.900Z,15.90
2022-10-24T08:26:08.950Z,15.90
2022-10-24T08:28:38.172Z,15.80
2022-10-24T08:31:08.211Z,16.00
2022-10-24T08:33:36.226Z,16.40
2022-10-24T08:36:12.131Z,16.60
2022-10-24T08:38:39.858Z,16.60
2022-10-24T08:41:07.214Z,16.50
2022-10-24T08:43:34.486Z,16.40
2022-10-24T08:46:11.313Z,16.40
2022-10-24T08:48:48.657Z,16.40
2022-10-24T08:51:30.979Z,16.80
2022-10-24T08:54:01.503Z,17.30
2022-10-24T08:56:33.015Z,17.70
2022-10-24T08:59:03.600Z,18.20
2022-10-24T09:01:50.671Z,18.10
2022-10-24T09:04:22.594Z,18.00
2022-10-24T09:06:59.257Z,17.70
2022-10-24T09:09:42.694Z,17.50
2022-10-24T09:12:15.081Z,17.40
2022-10-24T09:14:44.804Z,17.20
2022-10-24T09:17:25.248Z,17.30
2022-10-24T09:19:58.577Z,17.00
2022-10-24T09:22:29.601Z,17.00
2022-10-24T09:25:02.597Z,17.20
2022-10-24T09:27:35.985Z,17.40
2022-10-24T09:30:14.430Z,17.40
2022-10-24T09:32:45.388Z,17.70
2022-10-24T09:35:20.471Z,17.80
2022-10-24T09:37:52.626Z,17.60
2022-10-24T09:40:22.850Z,17.70
2022-10-24T09:42:53.824Z,17.80
2022-10-24T09:45:34.086Z,17.80
2022-10-24T09:48:06.498Z,18.20
2022-10-24T09:50:36.396Z,18.60
2022-10-24T09:53:05.565Z,18.90
2022-10-24T09:55:43.308Z,19.10
2022-10-24T09:58:20.081Z,19.10
2022-10-24T10:00:59.838Z,18.80
2022-10-24T10:03:27.668Z,18.60
2022-10-24T10:05:57.602Z,18.50
2022-10-24T10:08:29.303Z,18.70
2022-10-24T10:11:04.525Z,18.80
2022-10-24T10:13:38.854Z,19.00
2022-10-24T10:16:09.941Z,19.20
2022-10-24T10:18:39.951Z,19.40
2022-10-24T10:21:25.327Z,19.40
2022-10-24T10:23:57.245Z,19.90
2022-10-24T10:26:45.778Z,20.10
2022-10-24T10:29:16.868Z,20.40
2022-10-24T10:31:48.184Z,20.60
2022-10-24T10:34:39.990Z,20.70
2022-10-24T10:37:10.493Z,20.80
2022-10-24T10:40:04.526Z,20.80
2022-10-24T10:42:44.369Z,20.70
2022-10-24T10:45:51.433Z,20.50
2022-10-24T10:48:39.318Z,20.20
2022-10-24T10:51:29.756Z,20.10
2022-10-24T10:54:00.256Z,20.30
2022-10-24T10:56:48.354Z,20.40
2022-10-24T10:59:20.031Z,20.40
2022-10-24T11:01:49.189Z,20.30
2022-10-24T11:04:24.703Z,20.20
2022-10-24T11:06:51.963Z,20.00
2022-10-24T11:09:36.300Z,19.60
2022-10-24T11:12:07.523Z,19.40
2022-10-24T11:14:36.540Z,19.40
2022-10-24T11:17:16.932Z,19.40
2022-10-24T11:19:51.546Z,19.30
2022-10-24T11:22:26.495Z,19.30
2022-10-24T11:25:03.216Z,19.30
2022-10-24T11:27:39.216Z,19.40
2022-10-24T11:30:13.621Z,19.30
2022-10-24T11:32:46.425Z,19.20
2022-10-24T11:35:31.125Z,19.00
2022-10-24T11:38:05.320Z,18.90
2022-10-24T11:40:34.959Z,18.90
2022-10-24T11:43:25.702Z,18.70
2022-10-24T11:46:25.871Z,18.70
2022-10-24T11:49:09.527Z,18.70
2022-10-24T11:51:42.946Z,18.70
2022-10-24T11:54:18.229Z,18.60
2022-10-24T11:56:58.541Z,18.60
2022-10-24T11:59:25.924Z,18.50
2022-10-24T12:01:55.410Z,18.60
2022-10-24T12:04:42.570Z,18.60
2022-10-24T12:07:17.212Z,18.50
2022-10-24T12:09:55.657Z,18.40
2022-10-24T12:12:48.549Z,18.40
2022-10-24T12:15:28.368Z,18.30
2022-10-24T12:18:22.029Z,18.30
2022-10-24T12:20:55.743Z,18.30
2022-10-24T12:23:29.528Z,18.40
2022-10-24T12:26:19.434Z,18.40
2022-10-24T12:28:58.330Z,18.40
2022-10-24T12:31:37.399Z,18.40
2022-10-24T12:34:27.389Z,18.30
2022-10-24T12:37:04.009Z,18.30
2022-10-24T12:39:38.127Z,18.30
2022-10-24T12:42:11.988Z,18.30
2022-10-24T12:44:41.647Z,18.30
2022-10-24T12:47:31.162Z,18.20
2022-10-24T12:50:20.797Z,18.20
2022-10-24T12:52:48.885Z,18.10
2022-10-24T12:55:39.843Z,18.00
2022-10-24T12:58:30.276Z,17.90
2022-10-24T13:01:00.686Z,17.90
2022-10-24T13:03:32.590Z,17.90
2022-10-24T13:06:10.048Z,17.80
2022-10-24T13:08:51.641Z,17.70
2022-10-24T13:11:20.154Z,17.70
2022-10-24T13:14:18.781Z,17.70
2022-10-24T13:17:06.928Z,17.70
2022-10-24T13:19:34.484Z,17.70
2022-10-24T13:22:02.435Z,17.70
2022-10-24T13:24:35.172Z,17.70
2022-10-24T13:27:06.420Z,17.70
2022-10-24T13:29:37.530Z,17.70
2022-10-24T13:32:04.834Z,17.60
2022-10-24T13:34:53.169Z,17.60
2022-10-24T13:37:42.700Z,17.60
2022-10-24T13:40:30.075Z,17.50
2022-10-24T13:43:06.879Z,17.40
2022-10-24T13:45:55.326Z,17.40
2022-10-24T13:48:29.011Z,17.30
2022-10-24T13:51:23.947Z,17.30
2022-10-24T13:53:57.657Z,17.20
2022-10-24T13:56:25.511Z,17.20
2022-10-24T13:58:52.710Z,17.20
2022-10-24T14:01:30.397Z,17.20
2022-10-24T14:03:59.640Z,17.20
2022-10-24T14:06:31.155Z,17.10
2022-10-24T14:09:07.219Z,17.10
2022-10-24T14:11:39.743Z,17.10
2022-10-24T14:14:19.059Z,17.10
2022-10-24T14:16:46.668Z,17.10
2022-10-24T14:19:29.608Z,17.00
2022-10-24T14:21:59.562Z,17.00
2022-10-24T14:24:30.434Z,17.00
2022-10-24T14:26:58.873Z,17.00
2022-10-24T14:29:28.636Z,17.00
2022-10-24T14:32:04.871Z,17.00
2022-10-24T14:34:40.860Z,17.10
2022-10-24T14:37:22.420Z,17.00
2022-10-24T14:39:51.324Z,17.00
2022-10-24T14:42:22.626Z,17.00
2022-10-24T14:44:58.302Z,17.00
2022-10-24T14:47:28.447Z,17.00
2022-10-24T14:50:00.391Z,17.00
2022-10-24T14:52:39.803Z,17.00
2022-10-24T14:55:21.434Z,16.90
2022-10-24T14:57:51.776Z,16.80
2022-10-24T15:00:23.851Z,16.80
2022-10-24T15:02:57.104Z,16.80
2022-10-24T15:05:24.583Z,16.80
2022-10-24T15:08:20.424Z,16.70
2022-10-24T15:10:47.391Z,16.80
2022-10-24T15:13:22.164Z,16.70
2022-10-24T15:15:53.794Z,16.70
2022-10-24T15:18:28.847Z,16.60
2022-10-24T15:21:07.437Z,16.70
2022-10-24T15:23:45.337Z,16.70
2022-10-24T15:26:23.876Z,16.60
2022-10-24T15:29:13.205Z,16.50
2022-10-24T15:31:44.578Z,16.50
2022-10-24T15:34:20.085Z,16.40
2022-10-24T15:36:50.549Z,16.40
2022-10-24T15:39:23.215Z,16.40
2022-10-24T15:41:50.849Z,16.40
2022-10-24T15:44:27.953Z,16.30
2022-10-24T15:46:58.149Z,16.20
2022-10-24T15:49:35.752Z,16.10
2022-10-24T15:52:08.192Z,16.10
2022-10-24T15:54:35.348Z,16.00
2022-10-24T15:57:05.263Z,16.00
2022-10-24T15:59:32.971Z,16.00
2022-10-24T16:02:03.098Z,15.90
2022-10-24T16:04:32.777Z,15.90
2022-10-24T16:07:01.754Z,15.80
2022-10-24T16:09:31.282Z,15.70
2022-10-24T16:11:58.652Z,15.70
2022-10-24T16:14:26.966Z,15.70
2022-10-24T16:16:55.278Z,15.60
2022-10-24T16:19:26.529Z,15.60
2022-10-24T16:21:58.801Z,15.50
2022-10-24T16:24:27.501Z,15.40
2022-10-24T16:26:54.937Z,15.40
2022-10-24T16:29:22.437Z,15.30
2022-10-24T16:31:50.954Z,15.30
2022-10-24T16:34:18.370Z,15.20
2022-10-24T16:36:45.615Z,15.20
2022-10-24T16:39:14.562Z,15.20
2022-10-24T16:41:46.343Z,15.20
2022-10-24T16:44:14.480Z,15.10
2022-10-24T16:46:41.632Z,15.10
2022-10-24T16:49:08.914Z,15.10
2022-10-24T16:51:41.823Z,15.10
2022-10-24T16:54:12.689Z,15.10
2022-10-24T16:56:40.796Z,15.10
2022-10-24T16:59:14.585Z,15.10
2022-10-24T17:01:47.515Z,15.10
2022-10-24T17:04:14.770Z,15.10
2022-10-24T17:06:42.114Z,15.20
2022-10-24T17:09:09.256Z,15.10
2022-10-24T17:11:45.395Z,15.10
2022-10-24T17:14:14.625Z,15.10
2022-10-24T17:16:43.401Z,15.10
2022-10-24T17:19:18.204Z,15.10
2022-10-24T17:21:48.876Z,15.20
2022-10-24T17:24:19.086Z,15.20
2022-10-24T17:26:47.588Z,15.20
2022-10-24T17:29:33.981Z,15.20
2022-10-24T17:32:01.327Z,15.20
2022-10-24T17:34:29.142Z,15.20
2022-10-24T17:37:07.109Z,15.20
2022-10-24T17:39:48.474Z,15.10
2022-10-24T17:42:16.136Z,15.10
2022-10-24T17:44:45.594Z,15.10
2022-10-24T17:47:12.894Z,15.00
2022-10-24T17:49:40.138Z,15.00
2022-10-24T17:52:14.367Z,14.90
2022-10-24T17:54:44.859Z,14.90
2022-10-24T17:57:14.722Z,14.80
2022-10-24T17:59:43.638Z,14.80
2022-10-24T18:02:14.609Z,14.70
2022-10-24T18:04:44.798Z,14.60
2022-10-24T18:07:12.290Z,14.60
2022-10-24T18:09:40.253Z,14.50
2022-10-24T18:12:07.708Z,14.60
2022-10-24T18:14:37.614Z,14.60
2022-10-24T18:17:04.829Z,14.60
2022-10-24T18:19:32.128Z,14.50
2022-10-24T18:21:59.334Z,14.50
2022-10-24T18:24:26.516Z,14.60
2022-10-24T18:26:53.928Z,14.70
2022-10-24T18:29:21.539Z,14.80
2022-10-24T18:31:49.176Z,14.90
2022-10-24T18:34:17.135Z,15.00
2022-10-24T18:36:46.681Z,15.10
2022-10-24T18:39:17.242Z,15.10
2022-10-24T18:42:17.026Z,15.20
2022-10-24T18:44:51.123Z,15.20
2022-10-24T18:47:23.233Z,15.20
2022-10-24T18:49:53.620Z,15.20
2022-10-24T18:52:42.060Z,15.30
2022-10-24T18:55:19.591Z,15.30
2022-10-24T18:57:48.066Z,15.30
2022-10-24T19:00:19.365Z,15.40
2022-10-24T19:03:16.636Z,15.40
2022-10-24T19:05:51.925Z,15.40
2022-10-24T19:08:25.609Z,15.40
2022-10-24T19:10:56.680Z,15.40
2022-10-24T19:13:25.669Z,15.40
2022-10-24T19:15:58.009Z,15.50
2022-10-24T19:18:28.838Z,15.70
2022-10-24T19:20:56.701Z,15.70
2022-10-24T19:23:24.853Z,15.70
2022-10-24T19:25:52.554Z,15.70
2022-10-24T19:28:21.069Z,15.70
2022-10-24T19:30:48.815Z,15.70
2022-10-24T19:33:16.946Z,15.60
2022-10-24T19:35:48.187Z,15.60
2022-10-24T19:38:20.946Z,15.50
2022-10-24T19:40:52.592Z,15.50
2022-10-24T19:43:21.202Z,15.40
2022-10-24T19:45:50.468Z,15.40
2022-10-24T19:48:32.172Z,15.30
2022-10-24T19:51:16.498Z,15.20
2022-10-24T19:53:45.205Z,15.20
2022-10-24T19:56:16.730Z,15.00
2022-10-24T19:58:45.884Z,15.00
2022-10-24T20:01:16.610Z,15.00
2022-10-24T20:03:45.789Z,14.90
2022-10-24T20:06:14.049Z,14.90
2022-10-24T20:08:42.001Z,14.70
2022-10-24T20:11:09.408Z,14.70
2022-10-24T20:13:41.523Z,14.70
2022-10-24T20:16:13.739Z,14.60
2022-10-24T20:18:43.996Z,14.50
2022-10-24T20:21:14.641Z,14.50
2022-10-24T20:23:42.322Z,14.50
2022-10-24T20:26:15.502Z,14.40
2022-10-24T20:28:47.960Z,14.50
2022-10-24T20:31:32.347Z,14.40
2022-10-24T20:34:07.032Z,14.50
2022-10-24T20:36:38.250Z,14.40
2022-10-24T20:39:07.503Z,14.40
2022-10-24T20:41:35.804Z,14.40
2022-10-24T20:44:04.506Z,14.40
2022-10-24T20:46:33.176Z,14.40
2022-10-24T20:49:00.604Z,14.40
2022-10-24T20:51:28.755Z,14.40
2022-10-24T20:53:55.981Z,14.40
2022-10-24T20:56:26.200Z,14.30
2022-10-24T20:58:55.260Z,14.30
2022-10-24T21:01:25.580Z,14.20
2022-10-24T21:03:53.971Z,14.20
2022-10-24T21:06:24.260Z,14.10
2022-10-24T21:08:53.542Z,14.10
2022-10-24T21:11:26.516Z,14.10
2022-10-24T21:14:11.908Z,14.00
2022-10-24T21:16:41.263Z,14.00
2022-10-24T21:19:08.391Z,14.00
2022-10-24T21:21:35.607Z,14.00
2022-10-24T21:24:05.780Z,13.90
2022-10-24T21:26:35.480Z,13.90
2022-10-24T21:29:31.811Z,13.90
2022-10-24T21:31:51.138Z,13.90
2022-10-24T21:34:19.520Z,13.90
2022-10-24T21:36:46.717Z,13.90
2022-10-24T21:39:15.983Z,13.90
2022-10-24T21:41:44.470Z,13.90
2022-10-24T21:44:12.548Z,13.90
2022-10-24T21:46:39.653Z,13.90
2022-10-24T21:49:06.873Z,13.90
2022-10-24T21:51:36.456Z,13.90
2022-10-24T21:54:06.703Z,13.80
2022-10-24T21:56:37.105Z,13.80
2022-10-24T21:59:06.352Z,13.80
2022-10-24T22:01:36.268Z,13.80
2022-10-24T22:04:04.899Z,13.80
2022-10-24T22:06:33.588Z,13.80
2022-10-24T22:09:01.661Z,13.80
2022-10-24T22:11:31.278Z,13.80
2022-10-24T22:13:59.074Z,13.80
2022-10-24T22:16:29.179Z,13.70
2022-10-24T22:18:59.049Z,13.70
2022-10-24T22:21:31.174Z,13.70
2022-10-24T22:24:00.120Z,13.70
2022-10-24T22:26:28.179Z,13.70
2022-10-24T22:28:56.474Z,13.70
2022-10-24T22:31:25.674Z,13.60
2022-10-24T22:33:53.579Z,13.60
2022-10-24T22:36:31.737Z,13.60
2022-10-24T22:38:59.232Z,13.60
2022-10-24T22:41:27.873Z,13.60
2022-10-24T22:43:55.339Z,13.60
2022-10-24T22:46:56.788Z,13.60
2022-10-24T22:50:03.869Z,13.60
2022-10-24T22:52:31.543Z,13.60
2022-10-24T22:54:59.101Z,13.60
2022-10-24T22:57:26.599Z,13.60
2022-10-24T22:59:54.324Z,13.60
2022-10-24T23:02:30.291Z,13.60
2022-10-24T23:05:09.088Z,13.50
2022-10-24T23:08:00.253Z,13.50
2022-10-24T23:10:27.507Z,13.50
2022-10-24T23:12:54.927Z,13.50
2022-10-24T23:15:22.989Z,13.40
2022-10-24T23:17:51.363Z,13.50
2022-10-24T23:20:19.496Z,13.40
2022-10-24T23:22:54.478Z,13.40
2022-10-24T23:25:32.249Z,13.40
2022-10-24T23:28:15.912Z,13.30
2022-10-24T23:30:43.379Z,13.30
2022-10-24T23:33:21.163Z,13.30
2022-10-24T23:35:55.165Z,13.20
2022-10-24T23:38:22.705Z,13.20
2022-10-24T23:40:50.518Z,13.20
2022-10-24T23:43:20.738Z,13.20
2022-10-24T23:46:00.277Z,13.20
2022-10-24T23:48:38.389Z,13.20
2022-10-24T23:51:14.549Z,13.20
2022-10-24T23:53:53.144Z,13.20
2022-10-24T23:56:22.860Z,13.20
2022-10-24T23:58:51.425Z,13.20
